createdAt,value
2022-10-01T00:00:57.209Z,100231.56
2022-10-01T00:03:26.724Z,100227.59
2022-10-01T00:06:04.089Z,100231.44
2022-10-01T00:08:33.314Z,100215.22
2022-10-01T00:11:02.738Z,100218.38
2022-10-01T00:13:32.528Z,100212.16
2022-10-01T00:16:00.426Z,100202.69
2022-10-01T00:18:26.980Z,100192.13
2022-10-01T00:20:53.560Z,100186.78
2022-10-01T00:23:20.109Z,100197.44
2022-10-01T00:25:46.749Z,100199.84
2022-10-01T00:28:13.517Z,100212.12
2022-10-01T00:30:46.903Z,100238.81
2022-10-01T00:33:13.701Z,100281.44
2022-10-01T00:35:40.263Z,100304.81
2022-10-01T00:38:06.840Z,100286.19
2022-10-01T00:40:33.412Z,100248.25
2022-10-01T00:43:00.011Z,100222.81
2022-10-01T00:45:26.653Z,100225.44
2022-10-01T00:47:59.022Z,100219.38
2022-10-01T00:50:29.029Z,100218.50
2022-10-01T00:52:59.442Z,100215.88
2022-10-01T00:55:44.109Z,100207.47
2022-10-01T00:58:14.550Z,100211.25
2022-10-01T01:00:42.814Z,100208.41
2022-10-01T01:03:11.062Z,100212.03
2022-10-01T01:05:39.397Z,100204.53
2022-10-01T01:08:07.808Z,100204.06
2022-10-01T01:10:59.540Z,100210.19
2022-10-01T01:13:33.061Z,100223.41
2022-10-01T01:16:09.625Z,100216.34
2022-10-01T01:19:02.179Z,100215.44
2022-10-01T01:21:36.084Z,100216.34
2022-10-01T01:24:34.085Z,100210.91
2022-10-01T01:27:25.277Z,100217.50
2022-10-01T01:30:11.637Z,100211.03
2022-10-01T01:33:03.300Z,100223.06
2022-10-01T01:35:35.561Z,100210.44
2022-10-01T01:38:08.047Z,100199.22
2022-10-01T01:40:37.528Z,100190.91
2022-10-01T01:43:08.092Z,100191.12
2022-10-01T01:45:40.158Z,100201.12
2022-10-01T01:48:09.995Z,100212.72
2022-10-01T01:50:43.559Z,100233.75
2022-10-01T01:53:11.375Z,100252.88
2022-10-01T01:55:39.154Z,100244.53
2022-10-01T01:58:05.944Z,100236.34
2022-10-01T02:00:32.518Z,100236.94
2022-10-01T02:02:59.243Z,100233.28
2022-10-01T02:05:42.264Z,100233.50
2022-10-01T02:08:47.522Z,100226.94
2022-10-01T02:11:19.107Z,100218.19
2022-10-01T02:13:54.845Z,100212.38
2022-10-01T02:16:27.663Z,100206.69
2022-10-01T02:19:00.692Z,100203.41
2022-10-01T02:21:50.453Z,100182.13
2022-10-01T02:24:27.650Z,100172.03
2022-10-01T02:26:56.984Z,100177.81
2022-10-01T02:29:24.151Z,100177.25
2022-10-01T02:31:55.715Z,100184.97
2022-10-01T02:34:27.965Z,100194.28
2022-10-01T02:36:57.002Z,100201.69
2022-10-01T02:39:28.582Z,100191.34
2022-10-01T02:41:57.802Z,100195.88
2022-10-01T02:44:32.113Z,100192.69
2022-10-01T02:47:12.541Z,100192.94
2022-10-01T02:49:41.404Z,100193.41
2022-10-01T02:52:20.685Z,100204.06
2022-10-01T02:54:54.844Z,100217.59
2022-10-01T02:57:24.848Z,100220.19
2022-10-01T02:59:52.222Z,100219.53
2022-10-01T03:02:20.158Z,100215.19
2022-10-01T03:04:49.798Z,100232.41
2022-10-01T03:07:16.808Z,100225.31
2022-10-01T03:09:43.388Z,100223.37
2022-10-01T03:12:10.812Z,100222.81
2022-10-01T03:14:39.360Z,100223.72
2022-10-01T03:17:09.061Z,100228.84
2022-10-01T03:19:35.736Z,100227.00
2022-10-01T03:22:02.367Z,100220.88
2022-10-01T03:24:28.995Z,100231.56
2022-10-01T03:26:57.138Z,100232.47
2022-10-01T03:29:24.864Z,100230.56
2022-10-01T03:31:52.229Z,100232.81
2022-10-01T03:34:19.895Z,100223.16
2022-10-01T03:36:47.077Z,100218.16
2022-10-01T03:39:13.814Z,100227.37
2022-10-01T03:41:40.682Z,100233.50
2022-10-01T03:44:07.281Z,100227.16
2022-10-01T03:46:33.842Z,100237.16
2022-10-01T03:49:00.947Z,100230.66
2022-10-01T03:51:28.568Z,100242.16
2022-10-01T03:53:56.053Z,100251.13
2022-10-01T03:56:23.305Z,100257.84
2022-10-01T03:58:49.963Z,100259.66
2022-10-01T04:01:17.315Z,100252.81
2022-10-01T04:03:44.171Z,100247.03
2022-10-01T04:06:11.341Z,100236.13
2022-10-01T04:08:38.835Z,100233.37
2022-10-01T04:11:06.418Z,100243.72
2022-10-01T04:13:34.667Z,100241.56
2022-10-01T04:16:03.132Z,100232.16
2022-10-01T04:18:29.946Z,100231.13
2022-10-01T04:20:56.800Z,100218.19
2022-10-01T04:23:23.743Z,100219.53
2022-10-01T04:25:50.494Z,100219.34
2022-10-01T04:28:17.452Z,100208.41
2022-10-01T04:30:45.817Z,100200.81
2022-10-01T04:33:15.574Z,100210.13
2022-10-01T04:35:45.934Z,100207.97
2022-10-01T04:38:14.154Z,100197.38
2022-10-01T04:40:40.714Z,100201.69
2022-10-01T04:43:09.691Z,100204.75
2022-10-01T04:45:38.638Z,100199.19
2022-10-01T04:48:05.461Z,100203.66
2022-10-01T04:50:32.750Z,100205.66
2022-10-01T04:52:59.354Z,100205.59
2022-10-01T04:55:26.208Z,100208.06
2022-10-01T04:57:52.759Z,100208.06
2022-10-01T05:00:22.297Z,100205.22
2022-10-01T05:02:49.942Z,100211.59
2022-10-01T05:05:18.190Z,100210.34
2022-10-01T05:07:45.804Z,100207.84
2022-10-01T05:10:18.586Z,100220.81
2022-10-01T05:12:46.308Z,100237.84
2022-10-01T05:15:13.753Z,100260.03
2022-10-01T05:17:40.281Z,100260.38
2022-10-01T05:20:07.946Z,100265.94
2022-10-01T05:22:34.499Z,100266.63
2022-10-01T05:25:01.231Z,100270.59
2022-10-01T05:27:28.095Z,100260.94
2022-10-01T05:29:54.653Z,100265.50
2022-10-01T05:32:21.227Z,100264.22
2022-10-01T05:34:51.271Z,100247.84
2022-10-01T05:37:20.036Z,100246.84
2022-10-01T05:39:46.815Z,100251.50
2022-10-01T05:42:13.365Z,100262.66
2022-10-01T05:44:45.924Z,100258.66
2022-10-01T05:47:13.591Z,100243.66
2022-10-01T05:49:42.952Z,100244.22
2022-10-01T05:52:11.152Z,100226.66
2022-10-01T05:54:38.364Z,100218.81
2022-10-01T05:57:06.355Z,100211.97
2022-10-01T05:59:32.947Z,100210.28
2022-10-01T06:01:59.795Z,100226.84
2022-10-01T06:04:26.543Z,100242.91
2022-10-01T06:06:53.881Z,100244.37
2022-10-01T06:09:20.413Z,100250.41
2022-10-01T06:11:49.672Z,100262.00
2022-10-01T06:14:16.939Z,100255.31
2022-10-01T06:16:43.608Z,100238.00
2022-10-01T06:19:10.444Z,100229.00
2022-10-01T06:21:37.466Z,100223.00
2022-10-01T06:24:04.319Z,100236.41
2022-10-01T06:26:31.293Z,100230.50
2022-10-01T06:28:57.953Z,100220.47
2022-10-01T06:31:25.171Z,100204.44
2022-10-01T06:33:51.884Z,100218.66
2022-10-01T06:36:18.480Z,100210.78
2022-10-01T06:38:48.385Z,100221.47
2022-10-01T06:41:15.602Z,100217.09
2022-10-01T06:43:42.165Z,100209.59
2022-10-01T06:46:08.819Z,100201.16
2022-10-01T06:48:36.660Z,100213.00
2022-10-01T06:51:04.266Z,100216.19
2022-10-01T06:53:31.928Z,100219.47
2022-10-01T06:56:04.575Z,100218.00
2022-10-01T06:58:31.176Z,100225.50
2022-10-01T07:00:59.675Z,100229.41
2022-10-01T07:03:26.246Z,100231.56
2022-10-01T07:05:52.787Z,100224.38
2022-10-01T07:08:19.850Z,100226.53
2022-10-01T07:10:46.600Z,100224.16
2022-10-01T07:13:17.639Z,100221.94
2022-10-01T07:15:45.601Z,100223.31
2022-10-01T07:18:13.421Z,100223.09
2022-10-01T07:20:40.800Z,100215.78
2022-10-01T07:23:15.082Z,100213.13
2022-10-01T07:25:43.118Z,100208.06
2022-10-01T07:28:16.678Z,100194.62
2022-10-01T07:30:57.148Z,100186.66
2022-10-01T07:33:23.754Z,100192.91
2022-10-01T07:35:50.310Z,100201.78
2022-10-01T07:38:16.915Z,100199.16
2022-10-01T07:40:43.572Z,100198.06
2022-10-01T07:43:10.278Z,100193.44
2022-10-01T07:45:36.864Z,100190.38
2022-10-01T07:48:03.583Z,100184.56
2022-10-01T07:50:30.633Z,100182.56
2022-10-01T07:52:58.840Z,100187.16
2022-10-01T07:55:28.283Z,100195.66
2022-10-01T07:57:57.548Z,100198.28
2022-10-01T08:00:26.460Z,100195.12
2022-10-01T08:02:56.117Z,100202.28
2022-10-01T08:05:25.892Z,100196.59
2022-10-01T08:07:54.014Z,100200.19
2022-10-01T08:10:23.274Z,100209.34
2022-10-01T08:12:49.852Z,100196.84
2022-10-01T08:15:18.124Z,100190.81
2022-10-01T08:17:45.538Z,100192.09
2022-10-01T08:20:13.970Z,100187.91
2022-10-01T08:22:42.268Z,100182.25
2022-10-01T08:25:09.481Z,100191.31
2022-10-01T08:27:36.162Z,100181.84
2022-10-01T08:30:02.904Z,100190.19
2022-10-01T08:32:30.967Z,100200.06
2022-10-01T08:34:57.643Z,100187.16
2022-10-01T08:37:28.678Z,100177.13
2022-10-01T08:39:56.195Z,100175.25
2022-10-01T08:42:34.757Z,100169.72
2022-10-01T08:45:06.579Z,100171.72
2022-10-01T08:47:41.270Z,100170.22
2022-10-01T08:50:16.715Z,100173.81
2022-10-01T08:52:52.701Z,100159.03
2022-10-01T08:55:28.403Z,100148.78
2022-10-01T08:58:01.714Z,100133.97
2022-10-01T09:00:30.718Z,100136.91
2022-10-01T09:02:59.579Z,100138.31
2022-10-01T09:05:41.847Z,100149.69
2022-10-01T09:08:24.129Z,100156.63
2022-10-01T09:11:00.734Z,100140.44
2022-10-01T09:13:54.452Z,100145.72
2022-10-01T09:16:36.198Z,100137.72
2022-10-01T09:19:02.755Z,100151.00
2022-10-01T09:21:49.743Z,100136.88
2022-10-01T09:24:23.214Z,100138.09
2022-10-01T09:26:49.897Z,100151.31
2022-10-01T09:29:27.457Z,100142.22
2022-10-01T09:31:56.585Z,100152.06
2022-10-01T09:34:33.975Z,100134.41
2022-10-01T09:37:14.814Z,100134.72
2022-10-01T09:40:15.440Z,100140.03
2022-10-01T09:42:42.946Z,100139.84
2022-10-01T09:45:15.135Z,100132.66
2022-10-01T09:47:45.489Z,100144.16
2022-10-01T09:50:20.279Z,100140.22
2022-10-01T09:52:50.439Z,100139.41
2022-10-01T09:55:28.413Z,100136.00
2022-10-01T09:57:58.070Z,100120.28
2022-10-01T10:00:26.498Z,100121.00
2022-10-01T10:02:55.048Z,100114.13
2022-10-01T10:05:25.500Z,100114.81
2022-10-01T10:08:13.682Z,100115.19
2022-10-01T10:10:49.173Z,100105.06
2022-10-01T10:13:39.066Z,100106.31
2022-10-01T10:16:10.915Z,100090.00
2022-10-01T10:18:40.054Z,100092.28
2022-10-01T10:21:15.123Z,100093.06
2022-10-01T10:24:03.882Z,100087.44
2022-10-01T10:26:33.920Z,100088.75
2022-10-01T10:29:02.868Z,100093.91
2022-10-01T10:31:43.627Z,100098.47
2022-10-01T10:34:17.605Z,100089.59
2022-10-01T10:36:46.183Z,100098.13
2022-10-01T10:39:27.936Z,100095.38
2022-10-01T10:41:56.695Z,100084.13
2022-10-01T10:44:30.217Z,100078.50
2022-10-01T10:47:00.828Z,100073.38
2022-10-01T10:49:31.378Z,100083.44
2022-10-01T10:52:00.972Z,100072.97
2022-10-01T10:54:37.621Z,100077.06
2022-10-01T10:57:34.072Z,100056.31
2022-10-01T11:00:00.609Z,100057.94
2022-10-01T11:02:33.217Z,100058.06
2022-10-01T11:05:15.445Z,100052.03
2022-10-01T11:07:45.134Z,100058.16
2022-10-01T11:10:20.650Z,100046.44
2022-10-01T11:13:25.529Z,100038.91
2022-10-01T11:16:31.011Z,100042.34
2022-10-01T11:19:01.581Z,100033.41
2022-10-01T11:21:48.852Z,100026.94
2022-10-01T11:24:18.240Z,100021.25
2022-10-01T11:26:58.445Z,100019.69
2022-10-01T11:29:45.086Z,100013.28
2022-10-01T11:32:11.536Z,100023.37
2022-10-01T11:35:03.697Z,100012.16
2022-10-01T11:37:30.219Z,99997.75
2022-10-01T11:40:01.740Z,99999.50
2022-10-01T11:42:36.674Z,99993.03
2022-10-01T11:45:19.584Z,99991.97
2022-10-01T11:47:52.338Z,99988.63
2022-10-01T11:50:25.404Z,99986.94
2022-10-01T11:52:59.667Z,99988.66
2022-10-01T11:55:57.394Z,99980.88
2022-10-01T11:59:01.461Z,99978.19
2022-10-01T12:01:39.256Z,99970.59
2022-10-01T12:04:27.528Z,99970.03
2022-10-01T12:07:10.678Z,99966.44
2022-10-01T12:09:57.516Z,99964.41
2022-10-01T12:12:55.565Z,99957.06
2022-10-01T12:15:29.976Z,99947.75
2022-10-01T12:18:16.138Z,99938.78
2022-10-01T12:20:51.180Z,99930.47
2022-10-01T12:23:26.452Z,99932.09
2022-10-01T12:26:05.220Z,99923.78
2022-10-01T12:28:54.506Z,99920.41
2022-10-01T12:31:26.380Z,99915.59
2022-10-01T12:34:17.187Z,99918.81
2022-10-01T12:36:55.838Z,99926.84
2022-10-01T12:39:41.203Z,99922.91
2022-10-01T12:42:33.205Z,99925.22
2022-10-01T12:45:22.302Z,99927.34
2022-10-01T12:48:16.459Z,99932.75
2022-10-01T12:50:57.447Z,99926.34
2022-10-01T12:53:36.389Z,99923.25
2022-10-01T12:56:30.900Z,99929.69
2022-10-01T12:59:30.856Z,99925.50
2022-10-01T13:02:00.323Z,99925.09
2022-10-01T13:04:56.681Z,99920.94
2022-10-01T13:07:26.084Z,99913.66
2022-10-01T13:10:23.905Z,99900.88
2022-10-01T13:13:04.354Z,99887.88
2022-10-01T13:15:38.025Z,99896.91
2022-10-01T13:18:04.541Z,99872.09
2022-10-01T13:20:41.197Z,99870.97
2022-10-01T13:23:43.790Z,99870.31
2022-10-01T13:26:22.538Z,99876.09
2022-10-01T13:29:00.488Z,99865.72
2022-10-01T13:31:52.876Z,99867.12
2022-10-01T13:34:41.863Z,99862.13
2022-10-01T13:37:18.292Z,99874.53
2022-10-01T13:39:46.746Z,99871.41
2022-10-01T13:42:21.013Z,99870.94
2022-10-01T13:44:53.612Z,99872.25
2022-10-01T13:47:21.199Z,99860.97
2022-10-01T13:50:05.296Z,99853.31
2022-10-01T13:52:33.086Z,99839.38
2022-10-01T13:55:01.835Z,99826.94
2022-10-01T13:57:34.677Z,99838.00
2022-10-01T14:00:19.680Z,99832.75
2022-10-01T14:03:05.344Z,99821.34
2022-10-01T14:05:42.286Z,99819.78
2022-10-01T14:08:30.996Z,99820.97
2022-10-01T14:11:44.053Z,99823.13
2022-10-01T14:14:31.030Z,99804.88
2022-10-01T14:16:59.062Z,99805.75
2022-10-01T14:19:28.040Z,99815.38
2022-10-01T14:22:16.611Z,99814.12
2022-10-01T14:25:21.033Z,99805.44
2022-10-01T14:28:05.525Z,99799.59
2022-10-01T14:30:49.183Z,99804.38
2022-10-01T14:33:49.976Z,99795.16
2022-10-01T14:36:20.004Z,99793.41
2022-10-01T14:38:46.499Z,99796.03
2022-10-01T14:41:23.361Z,99781.72
2022-10-01T14:43:50.116Z,99784.19
2022-10-01T14:46:18.501Z,99784.12
2022-10-01T14:48:56.306Z,99784.69
2022-10-01T14:51:29.798Z,99795.81
2022-10-01T14:53:59.934Z,99786.72
2022-10-01T14:56:27.657Z,99779.81
2022-10-01T14:59:02.754Z,99774.00
2022-10-01T15:01:29.912Z,99776.19
2022-10-01T15:03:56.643Z,99781.22
2022-10-01T15:06:28.022Z,99777.09
2022-10-01T15:09:02.427Z,99774.25
2022-10-01T15:11:31.673Z,99774.22
2022-10-01T15:14:08.320Z,99768.16
2022-10-01T15:16:36.174Z,99772.22
2022-10-01T15:19:13.396Z,99768.56
2022-10-01T15:21:45.376Z,99770.94
2022-10-01T15:24:38.096Z,99773.59
2022-10-01T15:27:05.600Z,99784.12
2022-10-01T15:29:32.252Z,99788.09
2022-10-01T15:32:00.225Z,99796.53
2022-10-01T15:34:27.839Z,99801.25
2022-10-01T15:36:55.502Z,99810.47
2022-10-01T15:39:47.341Z,99811.53
2022-10-01T15:42:32.303Z,99823.88
2022-10-01T15:45:12.521Z,99814.38
2022-10-01T15:47:40.129Z,99831.16
2022-10-01T15:50:16.134Z,99824.34
2022-10-01T15:52:51.846Z,99832.19
2022-10-01T15:55:32.646Z,99823.22
2022-10-01T15:58:14.164Z,99819.00
2022-10-01T16:00:47.668Z,99814.25
2022-10-01T16:03:27.305Z,99813.19
2022-10-01T16:05:55.054Z,99810.03
2022-10-01T16:08:25.587Z,99819.66
2022-10-01T16:11:14.284Z,99826.16
2022-10-01T16:13:44.173Z,99830.56
2022-10-01T16:16:10.687Z,99823.47
2022-10-01T16:18:40.458Z,99830.00
2022-10-01T16:21:09.831Z,99840.78
2022-10-01T16:23:50.503Z,99838.12
2022-10-01T16:26:34.437Z,99850.59
2022-10-01T16:29:20.589Z,99847.16
2022-10-01T16:31:47.453Z,99849.28
2022-10-01T16:34:15.981Z,99841.56
2022-10-01T16:36:42.695Z,99841.03
2022-10-01T16:39:12.479Z,99851.53
2022-10-01T16:41:39.830Z,99856.50
2022-10-01T16:44:06.859Z,99851.41
2022-10-01T16:46:33.637Z,99865.56
2022-10-01T16:49:00.241Z,99857.88
2022-10-01T16:51:27.183Z,99863.53
2022-10-01T16:53:54.993Z,99863.75
2022-10-01T16:56:26.918Z,99853.56
2022-10-01T16:58:53.841Z,99860.00
2022-10-01T17:01:20.496Z,99847.91
2022-10-01T17:03:47.164Z,99846.03
2022-10-01T17:06:13.693Z,99843.47
2022-10-01T17:08:40.319Z,99843.63
2022-10-01T17:11:10.675Z,99843.25
2022-10-01T17:13:39.150Z,99837.72
2022-10-01T17:16:06.609Z,99839.84
2022-10-01T17:18:33.270Z,99846.38
2022-10-01T17:21:02.942Z,99844.28
2022-10-01T17:23:29.544Z,99850.41
2022-10-01T17:25:56.075Z,99832.94
2022-10-01T17:28:24.025Z,99827.78
2022-10-01T17:30:52.042Z,99827.47
2022-10-01T17:33:19.444Z,99829.78
2022-10-01T17:35:51.629Z,99825.47
2022-10-01T17:38:19.446Z,99831.25
2022-10-01T17:40:46.279Z,99824.91
2022-10-01T17:43:14.775Z,99825.81
2022-10-01T17:45:41.808Z,99827.31
2022-10-01T17:48:09.466Z,99825.13
2022-10-01T17:50:43.704Z,99842.03
2022-10-01T17:53:11.967Z,99838.16
2022-10-01T17:55:42.827Z,99849.63
2022-10-01T17:58:10.032Z,99848.13
2022-10-01T18:00:36.757Z,99851.47
2022-10-01T18:03:03.516Z,99846.38
2022-10-01T18:05:30.152Z,99852.44
2022-10-01T18:07:56.769Z,99852.56
2022-10-01T18:10:23.392Z,99859.09
2022-10-01T18:12:50.399Z,99867.47
2022-10-01T18:15:20.303Z,99879.44
2022-10-01T18:17:51.496Z,99878.91
2022-10-01T18:20:20.811Z,99889.13
2022-10-01T18:22:48.118Z,99887.22
2022-10-01T18:25:16.134Z,99887.06
2022-10-01T18:27:43.497Z,99888.56
2022-10-01T18:30:10.855Z,99886.97
2022-10-01T18:32:42.700Z,99886.69
2022-10-01T18:35:24.183Z,99899.50
2022-10-01T18:37:55.192Z,99913.28
2022-10-01T18:40:27.290Z,99910.66
2022-10-01T18:42:57.798Z,99909.50
2022-10-01T18:45:36.968Z,99915.09
2022-10-01T18:48:09.507Z,99927.03
2022-10-01T18:50:43.231Z,99921.91
2022-10-01T18:53:36.295Z,99918.75
2022-10-01T18:56:32.431Z,99929.75
2022-10-01T18:59:21.059Z,99932.84
2022-10-01T19:02:21.908Z,99920.00
2022-10-01T19:05:28.887Z,99925.69
2022-10-01T19:08:09.208Z,99923.53
2022-10-01T19:10:45.577Z,99924.53
2022-10-01T19:13:24.596Z,99921.62
2022-10-01T19:16:02.858Z,99927.94
2022-10-01T19:18:41.744Z,99928.91
2022-10-01T19:21:34.601Z,99937.88
2022-10-01T19:24:07.380Z,99940.44
2022-10-01T19:26:46.265Z,99950.97
2022-10-01T19:29:43.106Z,99956.75
2022-10-01T19:32:21.717Z,99962.56
2022-10-01T19:35:06.461Z,99955.19
2022-10-01T19:37:52.372Z,99955.09
2022-10-01T19:40:25.446Z,99958.75
2022-10-01T19:43:35.639Z,99955.06
2022-10-01T19:46:21.675Z,99954.06
2022-10-01T19:49:09.714Z,99954.28
2022-10-01T19:51:44.253Z,99953.06
2022-10-01T19:54:17.327Z,99955.28
2022-10-01T19:56:48.686Z,99954.97
2022-10-01T19:59:19.790Z,99960.09
2022-10-01T20:01:57.384Z,99956.19
2022-10-01T20:04:40.727Z,99959.00
2022-10-01T20:07:16.829Z,99971.47
2022-10-01T20:09:46.351Z,99979.25
2022-10-01T20:12:38.693Z,99975.38
2022-10-01T20:15:19.879Z,99989.53
2022-10-01T20:18:17.948Z,99981.66
2022-10-01T20:21:22.368Z,99991.72
2022-10-01T20:24:16.665Z,99988.31
2022-10-01T20:26:51.951Z,99992.75
2022-10-01T20:29:45.787Z,99990.00
2022-10-01T20:32:39.456Z,99993.09
2022-10-01T20:35:47.856Z,99995.13
2022-10-01T20:38:32.326Z,99994.91
2022-10-01T20:41:05.215Z,100002.69
2022-10-01T20:43:38.691Z,99999.59
2022-10-01T20:46:32.584Z,99999.59
2022-10-01T20:49:23.289Z,100004.38
2022-10-01T20:52:09.554Z,100010.44
2022-10-01T20:54:41.437Z,100023.37
2022-10-01T20:57:47.027Z,100025.44
2022-10-01T21:00:19.563Z,100020.09
2022-10-01T21:03:02.136Z,100025.28
2022-10-01T21:05:34.766Z,100027.56
2022-10-01T21:08:05.218Z,100038.13
2022-10-01T21:10:53.820Z,100035.84
2022-10-01T21:13:20.295Z,100041.31
2022-10-01T21:16:05.472Z,100039.69
2022-10-01T21:18:45.424Z,100045.06
2022-10-01T21:21:41.082Z,100038.56
2022-10-01T21:24:19.820Z,100042.53
2022-10-01T21:27:34.143Z,100044.47
2022-10-01T21:30:03.279Z,100046.28
2022-10-01T21:32:50.532Z,100046.06
2022-10-01T21:35:35.972Z,100054.34
2022-10-01T21:38:11.600Z,100054.72
2022-10-01T21:41:05.713Z,100061.66
2022-10-01T21:43:56.681Z,100065.88
2022-10-01T21:46:33.282Z,100067.69
2022-10-01T21:49:18.169Z,100065.31
2022-10-01T21:51:51.210Z,100074.66
2022-10-01T21:54:26.708Z,100088.63
2022-10-01T21:57:25.716Z,100085.88
2022-10-01T22:00:07.193Z,100072.13
2022-10-01T22:02:48.171Z,100075.19
2022-10-01T22:05:28.219Z,100078.47
2022-10-01T22:08:26.925Z,100077.22
2022-10-01T22:10:57.628Z,100078.59
2022-10-01T22:13:29.441Z,100075.97
2022-10-01T22:16:02.195Z,100085.50
2022-10-01T22:18:47.215Z,100080.72
2022-10-01T22:21:22.963Z,100080.22
2022-10-01T22:23:59.130Z,100087.03
2022-10-01T22:26:29.318Z,100080.31
2022-10-01T22:28:57.080Z,100068.28
2022-10-01T22:31:29.194Z,100078.81
2022-10-01T22:34:10.847Z,100072.75
2022-10-01T22:36:46.594Z,100072.03
2022-10-01T22:39:25.184Z,100078.28
2022-10-01T22:42:01.517Z,100085.59
2022-10-01T22:44:29.515Z,100086.31
2022-10-01T22:47:19.609Z,100080.87
2022-10-01T22:49:58.178Z,100086.31
2022-10-01T22:52:48.235Z,100089.41
2022-10-01T22:55:30.720Z,100097.19
2022-10-01T22:58:09.575Z,100094.22
2022-10-01T23:00:44.673Z,100098.19
2022-10-01T23:03:23.583Z,100099.06
2022-10-01T23:06:15.820Z,100098.97
2022-10-01T23:09:00.595Z,100103.19
2022-10-01T23:11:37.967Z,100105.88
2022-10-01T23:14:11.733Z,100113.03
2022-10-01T23:17:10.746Z,100112.59
2022-10-01T23:19:56.151Z,100112.59
2022-10-01T23:22:51.869Z,100120.50
2022-10-01T23:25:33.795Z,100112.69
2022-10-01T23:28:13.542Z,100123.72
2022-10-01T23:30:49.013Z,100129.78
2022-10-01T23:33:41.687Z,100132.25
2022-10-01T23:36:32.780Z,100130.81
2022-10-01T23:39:36.556Z,100134.63
2022-10-01T23:42:35.304Z,100123.09
2022-10-01T23:45:33.041Z,100126.59
2022-10-01T23:48:22.361Z,100127.63
2022-10-01T23:50:57.952Z,100142.97
2022-10-01T23:53:51.908Z,100136.78
2022-10-01T23:56:50.900Z,100142.09
2022-10-01T23:59:29.041Z,100155.72
